Van Buren, Washington
Current Conditions -  °F | °C
As of 11:00 PM on Tuesday 21 Oct 2014 (Local Time) from CYXX Reporting Station
Overcast Overcast  
Wind Chill: 61°   Ceiling: 10000
Heat Index: 61°   Visibility: 15mi
Dew Point: 46°   Wind: 18mph
Humidity: 59%   Direction: 140°SE
Pressure: 29.7"   Gusts: 31mph
Location:  48.9068°N, 122.295°W
Report Text: CYXX 220600Z 14016G27KT 15SM SCT045 OVC100 16/08 A2970 RMK SC3AS5 SLP057 DENSITY ALT 500FT
Loading
Personal Weather Stations






























Interactive Weather Map New forecast layout! Learn more

10-Day Weather Forecast

Advertisements
Track Severe Weather on mobile